Time;durP1;ratioP1;P1;durP2;ratioP2;P2;SDS_P1;SDS_P2;PMS_P1;PMS_P2;Temp;Humidity;BMP_temperature;BMP_pressure;BME280_temperature;BME280_humidity;BME280_pressure;Samples;Min_cycle;Max_cycle;Signal;HPM_P1;HPM_P2
2023/09/20 00:00:58;;;;;;;1.25;0.70;;;18.20;79.50;;;;;;6072703;23;20023;-83
2023/09/20 00:04:23;;;;;;;1.85;1.00;;;18.30;79.60;;;;;;6072012;23;20059;-83
2023/09/20 00:06:53;;;;;;;1.33;0.77;;;18.20;79.40;;;;;;5963548;24;20053;-82
2023/09/20 00:09:26;;;;;;;1.40;0.70;;;18.20;79.40;;;;;;5941768;24;20040;-83
2023/09/20 00:11:53;;;;;;;0.80;0.60;;;18.20;79.40;;;;;;5915919;24;20005;-82
2023/09/20 00:14:29;;;;;;;1.50;0.60;;;18.20;79.40;;;;;;5958199;24;20103;-82
2023/09/20 00:20:33;;;;;;;1.10;0.70;;;18.20;79.50;;;;;;6009296;23;20079;-78
2023/09/20 00:23:00;;;;;;;0.70;0.70;;;18.20;79.40;;;;;;5937168;23;20099;-79
2023/09/20 00:25:37;;;;;;;0.80;0.60;;;18.20;79.50;;;;;;5963341;23;20003;-79
2023/09/20 00:28:03;;;;;;;1.30;0.70;;;18.30;79.60;;;;;;5985354;23;20071;-79
2023/09/20 00:30:33;;;;;;;1.20;0.68;;;18.30;79.60;;;;;;6016552;23;20052;-80
2023/09/20 00:33:01;;;;;;;3.10;0.90;;;18.30;79.60;;;;;;5972670;23;20012;-80
2023/09/20 00:35:28;;;;;;;1.75;0.80;;;18.20;79.60;;;;;;5956397;24;20013;-79
2023/09/20 00:38:45;;;;;;;1.55;0.60;;;18.30;79.70;;;;;;5952618;24;20028;-81
2023/09/20 00:44:40;;;;;;;0.98;0.70;;;18.20;79.80;;;;;;5721468;25;20025;-82
2023/09/20 00:47:15;;;;;;;1.00;0.60;;;18.30;79.80;;;;;;5742190;24;20020;-81
2023/09/20 00:49:47;;;;;;;1.88;0.68;;;18.30;79.80;;;;;;5726301;24;20012;-81
2023/09/20 00:52:13;;;;;;;1.85;0.70;;;18.30;79.70;;;;;;5830315;24;20368;-83
2023/09/20 00:54:42;;;;;;;1.35;0.95;;;18.20;79.60;;;;;;5834215;24;20022;-80
2023/09/20 00:57:11;;;;;;;2.17;0.80;;;18.40;79.70;;;;;;5822013;24;20018;-81
2023/09/20 00:59:39;;;;;;;2.35;0.80;;;18.30;79.60;;;;;;5795283;24;20123;-79
2023/09/20 01:03:12;;;;;;;0.90;0.70;;;18.30;79.60;;;;;;5793392;24;20039;-80
2023/09/20 01:05:42;;;;;;;1.10;0.85;;;18.20;79.60;;;;;;5779083;24;20016;-79
2023/09/20 01:08:08;;;;;;;2.40;1.02;;;18.20;79.60;;;;;;5759519;24;20111;-80
2023/09/20 01:10:38;;;;;;;1.77;0.80;;;18.30;79.70;;;;;;5809838;24;20017;-81
2023/09/20 01:13:09;;;;;;;1.48;0.88;;;18.30;79.80;;;;;;5965446;23;20072;-79
2023/09/20 01:15:37;;;;;;;2.83;0.90;;;18.20;79.80;;;;;;5976038;23;20032;-78
2023/09/20 01:18:04;;;;;;;2.00;0.90;;;18.20;79.80;;;;;;6052612;23;20017;-80
2023/09/20 01:20:47;;;;;;;0.95;0.60;;;18.20;79.90;;;;;;6098587;23;20022;-80
2023/09/20 01:26:50;;;;;;;1.52;0.80;;;18.10;80.10;;;;;;6021313;23;20141;-79
2023/09/20 01:29:16;;;;;;;2.08;1.10;;;18.00;80.20;;;;;;6063028;23;20035;-80
2023/09/20 01:31:41;;;;;;;1.80;0.90;;;18.10;80.30;;;;;;6052110;23;20058;-78
2023/09/20 01:34:07;;;;;;;2.38;0.90;;;17.90;80.40;;;;;;6016020;23;20006;-78
2023/09/20 01:36:32;;;;;;;0.57;0.57;;;17.90;80.50;;;;;;6039725;23;20408;-78
2023/09/20 01:38:58;;;;;;;2.60;0.90;;;17.90;80.60;;;;;;6040112;23;20015;-78
2023/09/20 01:41:25;;;;;;;2.00;1.00;;;17.90;80.70;;;;;;6039560;23;20018;-78
2023/09/20 01:43:51;;;;;;;2.60;0.80;;;17.80;80.80;;;;;;6063671;23;20012;-77
2023/09/20 01:46:17;;;;;;;2.05;0.90;;;17.70;80.80;;;;;;6050198;23;20021;-78
2023/09/20 01:48:42;;;;;;;1.60;0.90;;;17.70;80.80;;;;;;6015683;23;20448;-77
2023/09/20 01:51:08;;;;;;;0.80;0.70;;;17.70;80.80;;;;;;6092150;23;20109;-77
2023/09/20 01:53:34;;;;;;;1.85;0.70;;;17.70;80.90;;;;;;6068592;23;20066;-78
2023/09/20 01:56:00;;;;;;;1.30;0.75;;;17.60;80.90;;;;;;6092430;23;20006;-76
2023/09/20 01:58:26;;;;;;;1.15;0.80;;;17.60;80.90;;;;;;6092352;23;20455;-78
2023/09/20 02:00:51;;;;;;;1.75;0.90;;;17.60;81.00;;;;;;6068547;23;20014;-77
2023/09/20 02:03:18;;;;;;;2.60;0.80;;;17.60;81.10;;;;;;6133418;23;20005;-78
2023/09/20 02:05:47;;;;;;;1.70;0.90;;;17.60;81.10;;;;;;6135295;23;20005;-77
2023/09/20 02:08:13;;;;;;;2.58;0.93;;;17.50;81.10;;;;;;6162734;23;20080;-77
2023/09/20 02:10:39;;;;;;;1.55;0.90;;;17.50;81.20;;;;;;6162140;23;20064;-77
2023/09/20 02:13:06;;;;;;;1.30;0.75;;;17.50;81.20;;;;;;6212728;23;20004;-77
2023/09/20 02:15:34;;;;;;;1.30;1.00;;;17.40;81.20;;;;;;6161722;23;20052;-78
2023/09/20 02:18:02;;;;;;;1.58;1.00;;;17.50;81.20;;;;;;6161727;23;20381;-78
2023/09/20 02:20:33;;;;;;;1.73;0.90;;;17.40;81.20;;;;;;6212629;23;20016;-77
2023/09/20 02:22:59;;;;;;;1.17;0.80;;;17.40;81.30;;;;;;6167049;23;20004;-77
2023/09/20 02:25:26;;;;;;;1.30;0.88;;;17.40;81.30;;;;;;6158587;23;20434;-77
2023/09/20 02:27:57;;;;;;;1.17;0.80;;;17.40;81.30;;;;;;6162250;23;19997;-77
2023/09/20 02:30:24;;;;;;;1.23;0.80;;;17.40;81.40;;;;;;6152187;23;20025;-77
2023/09/20 02:32:57;;;;;;;1.13;0.68;;;17.40;81.40;;;;;;6137180;23;20052;-78
2023/09/20 02:35:24;;;;;;;2.47;0.75;;;17.40;81.50;;;;;;6176693;23;20001;-77
2023/09/20 02:37:51;;;;;;;2.03;0.63;;;17.40;81.50;;;;;;6175716;23;20008;-77
2023/09/20 02:40:18;;;;;;;0.85;0.60;;;17.30;81.60;;;;;;6212845;23;20078;-77
2023/09/20 02:42:47;;;;;;;1.05;0.80;;;17.30;81.60;;;;;;6161465;23;20005;-78
2023/09/20 02:45:13;;;;;;;1.27;0.80;;;17.30;81.70;;;;;;6159683;23;20025;-77
2023/09/20 02:47:40;;;;;;;0.90;0.60;;;17.20;81.80;;;;;;6212880;23;20036;-78
2023/09/20 02:50:12;;;;;;;1.60;0.80;;;17.20;81.90;;;;;;6161731;23;20005;-77
2023/09/20 02:52:39;;;;;;;1.50;0.80;;;17.10;81.90;;;;;;6176606;23;20001;-78
2023/09/20 02:55:07;;;;;;;0.82;0.65;;;17.20;82.10;;;;;;6161435;23;20001;-77
2023/09/20 02:57:38;;;;;;;1.38;0.80;;;17.10;82.10;;;;;;6160074;23;20321;-78
2023/09/20 03:00:08;;;;;;;1.83;0.90;;;17.10;82.20;;;;;;6166971;23;20011;-78
2023/09/20 03:02:34;;;;;;;1.65;0.70;;;17.00;82.10;;;;;;6167359;23;20009;-77
2023/09/20 03:05:00;;;;;;;1.20;0.68;;;17.00;82.20;;;;;;6175848;23;19998;-77
2023/09/20 03:07:26;;;;;;;1.00;0.68;;;17.00;82.30;;;;;;6212403;23;19997;-77
2023/09/20 03:09:51;;;;;;;0.90;0.73;;;16.90;82.30;;;;;;6161501;23;20317;-78
2023/09/20 03:12:17;;;;;;;0.70;0.55;;;16.90;82.40;;;;;;6140388;23;20013;-77
2023/09/20 03:14:45;;;;;;;1.08;0.68;;;16.90;82.50;;;;;;6162749;23;20005;-77
2023/09/20 03:17:12;;;;;;;1.48;0.80;;;16.90;82.50;;;;;;6160966;23;20013;-78
2023/09/20 03:19:38;;;;;;;0.73;0.60;;;16.90;82.50;;;;;;6166074;23;19996;-77
2023/09/20 03:22:05;;;;;;;1.77;0.70;;;16.80;82.50;;;;;;6214391;23;20035;-77
2023/09/20 03:24:30;;;;;;;0.95;0.65;;;16.90;82.50;;;;;;6138158;23;19997;-78
2023/09/20 03:26:57;;;;;;;1.88;0.80;;;16.90;82.50;;;;;;6160276;23;20016;-78
2023/09/20 03:29:23;;;;;;;0.77;0.70;;;16.80;82.50;;;;;;6138039;23;20328;-77
2023/09/20 03:31:49;;;;;;;1.05;0.60;;;16.80;82.50;;;;;;6137616;23;20654;-77
2023/09/20 03:34:15;;;;;;;0.82;0.60;;;16.80;82.50;;;;;;6182953;23;20009;-77
2023/09/20 03:36:41;;;;;;;0.80;0.50;;;16.80;82.50;;;;;;6159932;23;19997;-77
2023/09/20 03:39:11;;;;;;;1.83;0.60;;;16.70;82.50;;;;;;6138540;23;20388;-77
2023/09/20 03:41:38;;;;;;;0.88;0.50;;;16.80;82.60;;;;;;6162731;23;20114;-78
2023/09/20 03:44:05;;;;;;;0.85;0.43;;;16.80;82.60;;;;;;6160253;23;20009;-77
2023/09/20 03:46:32;;;;;;;1.05;0.50;;;16.80;82.60;;;;;;6165166;23;20001;-77
2023/09/20 03:48:58;;;;;;;0.88;0.70;;;16.80;82.60;;;;;;6133624;23;20429;-78
2023/09/20 03:51:24;;;;;;;1.58;0.77;;;16.80;82.70;;;;;;6131569;23;19997;-78
2023/09/20 03:53:50;;;;;;;3.58;0.90;;;16.80;82.60;;;;;;6155440;23;20325;-77
2023/09/20 03:56:16;;;;;;;0.80;0.60;;;16.90;82.60;;;;;;6133962;23;20009;-77
2023/09/20 03:58:42;;;;;;;1.85;0.85;;;16.90;82.50;;;;;;6161449;23;19997;-77
2023/09/20 04:01:09;;;;;;;1.50;0.70;;;16.80;82.50;;;;;;6196167;23;20024;-77
2023/09/20 04:03:35;;;;;;;2.45;0.80;;;17.00;82.50;;;;;;6123514;23;20001;-78
2023/09/20 04:06:02;;;;;;;2.30;0.82;;;16.90;82.50;;;;;;6158976;23;20363;-77
2023/09/20 04:08:28;;;;;;;1.50;0.77;;;16.90;82.60;;;;;;6158310;23;19997;-77
2023/09/20 04:10:54;;;;;;;1.92;0.80;;;16.90;82.60;;;;;;6184895;23;20081;-78
2023/09/20 04:13:21;;;;;;;1.02;0.55;;;16.90;82.50;;;;;;6133069;23;20004;-77
2023/09/20 04:15:47;;;;;;;0.93;0.70;;;17.00;82.60;;;;;;6158662;23;20009;-79
2023/09/20 04:18:13;;;;;;;1.77;0.90;;;17.00;82.60;;;;;;6135738;23;20139;-78
2023/09/20 04:20:39;;;;;;;1.58;0.80;;;17.00;82.50;;;;;;6160593;23;21936;-76
2023/09/20 04:23:06;;;;;;;1.48;0.80;;;17.00;82.50;;;;;;6165176;23;20008;-77
2023/09/20 04:25:32;;;;;;;1.73;0.80;;;17.10;82.50;;;;;;6196051;23;20083;-77
2023/09/20 04:27:57;;;;;;;1.08;0.90;;;17.10;82.40;;;;;;6135249;23;20033;-78
2023/09/20 04:30:23;;;;;;;1.75;0.80;;;17.10;82.40;;;;;;6190243;23;20004;-77
2023/09/20 04:32:49;;;;;;;3.20;1.00;;;17.10;82.30;;;;;;6138111;23;20001;-77
2023/09/20 04:35:15;;;;;;;1.70;1.00;;;17.10;82.40;;;;;;6162787;23;20005;-77
2023/09/20 04:37:40;;;;;;;2.78;0.93;;;17.10;82.40;;;;;;6170397;23;20429;-77
2023/09/20 04:40:09;;;;;;;2.63;1.00;;;17.10;82.60;;;;;;6133954;23;20394;-78
2023/09/20 04:42:35;;;;;;;1.55;0.85;;;17.00;82.60;;;;;;6175961;23;20041;-78
2023/09/20 04:45:06;;;;;;;1.52;0.98;;;17.00;82.70;;;;;;6161043;23;20347;-78
2023/09/20 04:47:35;;;;;;;1.42;0.80;;;17.00;82.70;;;;;;6134463;23;20381;-78
2023/09/20 04:50:01;;;;;;;2.10;0.90;;;17.00;83.40;;;;;;6162741;23;19997;-75
2023/09/20 04:52:27;;;;;;;1.50;0.80;;;17.00;82.80;;;;;;6199118;23;20009;-76
2023/09/20 04:54:54;;;;;;;1.92;0.90;;;16.90;82.80;;;;;;6163029;23;20015;-76
2023/09/20 04:57:20;;;;;;;1.58;0.85;;;16.90;83.00;;;;;;6199348;23;20008;-76
2023/09/20 04:59:46;;;;;;;2.38;1.08;;;16.90;83.10;;;;;;6196401;23;20051;-77
2023/09/20 05:02:13;;;;;;;1.92;0.80;;;16.90;83.10;;;;;;6165217;23;20039;-76
2023/09/20 05:04:40;;;;;;;1.42;0.80;;;16.90;83.20;;;;;;6198034;23;20016;-76
2023/09/20 05:07:06;;;;;;;2.85;1.08;;;16.80;83.20;;;;;;6198646;23;20003;-75
2023/09/20 05:09:34;;;;;;;1.52;0.68;;;16.80;83.40;;;;;;6157783;23;20024;-76
2023/09/20 05:12:02;;;;;;;1.15;0.80;;;16.70;83.40;;;;;;6166619;23;20012;-75
2023/09/20 05:14:27;;;;;;;2.10;0.90;;;16.80;83.50;;;;;;6166486;23;20065;-77
2023/09/20 05:16:53;;;;;;;1.35;0.80;;;16.70;83.50;;;;;;6164476;23;20008;-76
2023/09/20 05:19:19;;;;;;;1.88;0.80;;;16.70;83.50;;;;;;6143286;23;20028;-76
2023/09/20 05:21:45;;;;;;;1.67;0.95;;;16.70;83.60;;;;;;6158929;23;20104;-76
2023/09/20 05:24:10;;;;;;;1.35;0.80;;;16.70;83.60;;;;;;6158563;23;20062;-77
2023/09/20 05:26:36;;;;;;;0.93;0.75;;;16.70;83.60;;;;;;6137512;23;20080;-77
2023/09/20 05:29:03;;;;;;;2.47;0.80;;;16.70;83.70;;;;;;6159652;23;20377;-77
2023/09/20 05:31:29;;;;;;;1.70;0.80;;;16.70;83.70;;;;;;6161858;23;20009;-76
2023/09/20 05:33:55;;;;;;;1.17;0.60;;;16.60;83.70;;;;;;6193402;23;20001;-77
2023/09/20 05:36:23;;;;;;;0.85;0.70;;;16.70;83.90;;;;;;6189653;23;20005;-78
2023/09/20 05:38:49;;;;;;;1.00;0.80;;;16.60;83.80;;;;;;6136175;23;20029;-77
2023/09/20 05:41:18;;;;;;;0.90;0.70;;;16.60;83.90;;;;;;6165712;23;20048;-77
2023/09/20 05:43:44;;;;;;;1.52;0.80;;;16.60;83.90;;;;;;6144046;23;20007;-76
2023/09/20 05:46:11;;;;;;;1.88;0.60;;;16.60;84.00;;;;;;6141740;23;20009;-78
2023/09/20 05:48:39;;;;;;;3.05;1.10;;;16.60;84.00;;;;;;6164203;23;20075;-77
2023/09/20 05:51:05;;;;;;;2.03;0.80;;;16.60;84.00;;;;;;6164112;23;20007;-77
2023/09/20 05:53:33;;;;;;;1.50;1.00;;;16.60;83.90;;;;;;6149022;23;20405;-77
2023/09/20 05:56:05;;;;;;;1.45;0.80;;;16.70;84.00;;;;;;6168442;23;20009;-77
2023/09/20 05:58:31;;;;;;;1.60;0.75;;;16.70;84.00;;;;;;6164693;23;20028;-77
2023/09/20 06:00:59;;;;;;;1.13;0.63;;;16.70;83.90;;;;;;6158569;23;20024;-79
2023/09/20 06:03:25;;;;;;;1.42;0.70;;;16.70;83.90;;;;;;6157016;23;20006;-76
2023/09/20 06:05:50;;;;;;;1.33;0.88;;;16.70;83.90;;;;;;6157409;23;20009;-77
2023/09/20 06:08:17;;;;;;;0.77;0.60;;;16.70;83.90;;;;;;6154976;23;20018;-77
2023/09/20 06:10:44;;;;;;;1.40;1.10;;;16.80;83.80;;;;;;6136944;23;20040;-78
2023/09/20 06:13:10;;;;;;;1.92;0.70;;;16.70;83.70;;;;;;6133115;23;20080;-77
2023/09/20 06:15:37;;;;;;;0.98;0.88;;;16.80;83.70;;;;;;6190834;23;20005;-78
2023/09/20 06:18:03;;;;;;;1.27;0.80;;;16.80;83.60;;;;;;6192840;23;20051;-77
2023/09/20 06:20:29;;;;;;;2.33;0.95;;;16.90;83.60;;;;;;6189466;23;20000;-78
2023/09/20 06:22:58;;;;;;;0.85;0.70;;;16.90;83.60;;;;;;6157636;23;20008;-78
2023/09/20 06:25:26;;;;;;;3.00;1.00;;;17.00;83.60;;;;;;6160657;23;20001;-79
2023/09/20 06:27:55;;;;;;;1.98;1.00;;;17.00;83.50;;;;;;6163117;23;20017;-78
2023/09/20 06:30:27;;;;;;;1.35;1.00;;;17.10;83.50;;;;;;6131588;23;20015;-79
2023/09/20 06:32:53;;;;;;;1.38;0.85;;;17.10;83.40;;;;;;6128810;23;20010;-76
2023/09/20 06:35:21;;;;;;;2.42;0.90;;;17.20;83.40;;;;;;6125969;23;20088;-77
2023/09/20 06:37:52;;;;;;;2.80;1.13;;;17.20;83.30;;;;;;6126836;23;20002;-79
2023/09/20 06:42:57;;;;;;;1.98;0.85;;;17.20;83.20;;;;;;6150773;23;20423;-78
2023/09/20 06:45:28;;;;;;;1.55;0.70;;;17.20;83.20;;;;;;6125804;23;20014;-78
2023/09/20 06:47:55;;;;;;;;;;;17.10;83.10;;;;;;6092276;23;20014;-76
2023/09/20 06:50:24;;;;;;;0.60;0.60;;;17.30;83.20;;;;;;6090623;23;19901;-76
2023/09/20 06:53:06;;;;;;;1.38;0.77;;;17.30;83.30;;;;;;6090939;23;20344;-79
2023/09/20 06:55:59;;;;;;;1.42;0.93;;;17.40;83.20;;;;;;6067062;23;20022;-84
2023/09/20 06:58:26;;;;;;;1.25;0.90;;;17.30;83.20;;;;;;6091785;23;20011;-77
2023/09/20 07:00:52;;;;;;;0.75;0.70;;;17.40;83.20;;;;;;6058823;23;20017;-76
2023/09/20 07:03:20;;;;;;;2.90;0.80;;;17.40;83.20;;;;;;6100251;23;20029;-76
2023/09/20 07:05:56;;;;;;;1.27;0.90;;;17.40;83.20;;;;;;6078146;23;20010;-78
2023/09/20 07:08:22;;;;;;;1.55;0.77;;;17.50;83.20;;;;;;6128275;23;20064;-78
2023/09/20 07:10:50;;;;;;;1.90;1.00;;;17.50;83.20;;;;;;6075204;23;20006;-75
2023/09/20 07:13:18;;;;;;;1.15;0.77;;;17.50;83.90;;;;;;6119380;23;20014;-75
2023/09/20 07:15:44;;;;;;;2.70;0.80;;;17.50;83.10;;;;;;6099529;23;20006;-76
2023/09/20 07:18:13;;;;;;;1.85;0.90;;;17.60;83.10;;;;;;6117212;23;20037;-74
2023/09/20 07:20:40;;;;;;;1.73;1.08;;;17.70;83.10;;;;;;6167786;23;20472;-76
2023/09/20 07:23:10;;;;;;;2.30;1.20;;;17.70;83.00;;;;;;6214199;23;20008;-73
2023/09/20 07:25:38;;;;;;;1.40;1.00;;;17.70;82.90;;;;;;6214429;23;20016;-78
2023/09/20 07:28:09;;;;;;;1.70;1.00;;;17.80;82.80;;;;;;6138243;23;20005;-76
2023/09/20 07:30:40;;;;;;;1.58;1.00;;;17.90;82.80;;;;;;6122676;23;20041;-76
2023/09/20 07:33:11;;;;;;;2.00;1.20;;;17.90;82.70;;;;;;6072699;23;20010;-77
2023/09/20 07:35:38;;;;;;;;;;;17.90;82.70;;;;;;6052047;23;20006;-77
2023/09/20 07:38:26;;;;;;;1.60;1.00;;;18.10;82.70;;;;;;6122603;23;19915;-78
2023/09/20 07:41:05;;;;;;;1.38;1.00;;;18.00;82.50;;;;;;6100395;23;20089;-77
2023/09/20 07:43:31;;;;;;;1.85;1.30;;;18.00;82.60;;;;;;6064497;23;20126;-77
2023/09/20 07:46:06;;;;;;;3.03;1.10;;;18.00;82.80;;;;;;6064651;23;20015;-78
2023/09/20 07:48:33;;;;;;;1.75;1.20;;;18.10;82.60;;;;;;6038617;23;20057;-77
2023/09/20 07:51:19;;;;;;;2.55;1.10;;;18.10;82.70;;;;;;6063723;23;20010;-79
2023/09/20 07:54:05;;;;;;;1.15;0.73;;;18.10;82.60;;;;;;6031819;23;20110;-80
2023/09/20 07:56:32;;;;;;;1.60;1.13;;;18.20;82.70;;;;;;6017002;23;20015;-77
2023/09/20 07:58:58;;;;;;;1.63;0.85;;;18.30;82.90;;;;;;6066910;23;20011;-76
2023/09/20 08:01:29;;;;;;;1.48;1.00;;;18.40;82.50;;;;;;6067421;23;20022;-76
2023/09/20 08:04:23;;;;;;;0.85;0.70;;;18.30;82.40;;;;;;6081468;23;20037;-78
2023/09/20 08:07:25;;;;;;;1.60;0.90;;;18.40;82.40;;;;;;6126925;23;20050;-79
2023/09/20 08:09:53;;;;;;;0.85;0.80;;;18.50;82.30;;;;;;6129118;23;20042;-76
2023/09/20 08:12:21;;;;;;;1.05;0.90;;;18.60;82.20;;;;;;6080685;23;20045;-77
2023/09/20 08:21:22;;;;;;;2.53;0.73;;;18.80;82.00;;;;;;6014798;23;20046;-79
2023/09/20 09:00:07;;;;;;;1.27;0.85;;;19.20;81.70;;;;;;6190492;23;20028;-76
2023/09/20 09:02:35;;;;;;;1.77;1.00;;;19.30;81.70;;;;;;6145367;23;20024;-76
2023/09/20 09:05:04;;;;;;;2.05;1.10;;;19.20;81.60;;;;;;6193285;23;20036;-75
2023/09/20 09:07:45;;;;;;;1.33;1.00;;;19.20;81.60;;;;;;6139239;23;20036;-78
2023/09/20 09:10:13;;;;;;;1.65;0.90;;;19.30;81.80;;;;;;6144230;23;20013;-78
2023/09/20 09:12:41;;;;;;;1.25;0.98;;;19.20;81.90;;;;;;6139261;23;20028;-77
2023/09/20 09:15:17;;;;;;;1.50;1.17;;;19.10;81.80;;;;;;6142900;23;20008;-79
2023/09/20 09:19:28;;;;;;;2.25;1.00;;;19.20;81.70;;;;;;6177887;23;20449;-80
2023/09/20 09:21:27;;;;;;;1.05;0.82;;;19.30;81.70;;;;;;6184265;23;20016;-75
2023/09/20 09:23:57;;;;;;;1.45;0.90;;;19.40;81.50;;;;;;6184718;23;20003;-78
2023/09/20 09:26:49;;;;;;;1.65;1.00;;;19.30;81.40;;;;;;6190369;23;20027;-78
2023/09/20 09:29:50;;;;;;;1.45;0.80;;;19.50;81.40;;;;;;6146471;23;20382;-80
2023/09/20 09:33:06;;;;;;;1.30;1.10;;;19.50;81.20;;;;;;6128082;23;20020;-82
2023/09/20 09:35:36;;;;;;;1.60;1.00;;;19.50;81.10;;;;;;6130373;23;20019;-77
2023/09/20 09:38:05;;;;;;;1.42;1.00;;;19.50;81.00;;;;;;6117230;23;20017;-76
2023/09/20 09:40:31;;;;;;;2.13;1.30;;;19.60;80.90;;;;;;6132113;23;20109;-75
2023/09/20 09:46:39;;;;;;;1.40;1.00;;;19.60;80.90;;;;;;5998670;23;20083;-80
2023/09/20 09:49:18;;;;;;;1.80;1.02;;;19.70;80.90;;;;;;6006477;23;20079;-78
2023/09/20 09:52:17;;;;;;;1.98;1.10;;;19.70;80.80;;;;;;5958464;24;20476;-80
2023/09/20 09:54:46;;;;;;;1.27;1.10;;;19.70;80.70;;;;;;5929028;24;20021;-78
2023/09/20 09:57:12;;;;;;;1.52;1.10;;;19.80;80.70;;;;;;5924076;24;20028;-77
2023/09/20 09:59:40;;;;;;;1.92;1.20;;;19.70;80.60;;;;;;5925836;24;20062;-76
2023/09/20 10:02:17;;;;;;;2.30;1.30;;;19.80;80.50;;;;;;5928988;24;20024;-77
2023/09/20 10:04:52;;;;;;;1.77;1.20;;;19.80;80.30;;;;;;5897062;24;20474;-78
2023/09/20 10:07:22;;;;;;;2.25;1.20;;;19.90;80.30;;;;;;5874389;24;20467;-77
2023/09/20 10:09:52;;;;;;;2.97;1.38;;;19.90;80.30;;;;;;5897888;24;20025;-77
2023/09/20 10:12:20;;;;;;;1.30;1.13;;;19.90;80.30;;;;;;5924222;24;20077;-78
2023/09/20 10:14:46;;;;;;;3.78;1.33;;;19.80;80.40;;;;;;5924684;24;20013;-78
2023/09/20 10:17:20;;;;;;;1.95;1.25;;;19.90;80.50;;;;;;6005568;23;20471;-77
2023/09/20 10:19:56;;;;;;;3.65;1.40;;;20.00;80.30;;;;;;6081442;23;20070;-76
2023/09/20 10:22:30;;;;;;;1.60;1.20;;;20.00;80.10;;;;;;6110425;23;20100;-78
2023/09/20 10:25:01;;;;;;;1.77;1.40;;;20.10;80.10;;;;;;6135568;23;20085;-79
2023/09/20 10:27:30;;;;;;;2.33;1.27;;;20.10;79.90;;;;;;6167740;23;20055;-77
2023/09/20 10:30:09;;;;;;;1.95;1.10;;;20.10;79.80;;;;;;6144329;23;20002;-78
2023/09/20 10:32:59;;;;;;;1.15;1.02;;;20.20;79.90;;;;;;6166237;23;20039;-75
2023/09/20 10:35:29;;;;;;;1.75;0.98;;;20.20;79.90;;;;;;6217803;23;20007;-75
2023/09/20 10:38:20;;;;;;;1.55;1.10;;;20.20;79.90;;;;;;6182308;23;20005;-74
2023/09/20 10:41:00;;;;;;;;;;;20.20;79.80;;;;;;6176656;23;20074;-74
2023/09/20 10:43:42;;;;;;;1.90;1.15;;;20.30;79.90;;;;;;6215804;23;19915;-75
2023/09/20 10:46:11;;;;;;;1.88;1.20;;;20.30;79.90;;;;;;6168804;23;19997;-75
2023/09/20 10:48:49;;;;;;;1.95;1.40;;;20.40;79.80;;;;;;6218823;23;20004;-75
2023/09/20 10:51:49;;;;;;;1.30;0.90;;;20.50;79.60;;;;;;6219436;23;20005;-77
2023/09/20 10:54:34;;;;;;;1.67;1.13;;;20.60;79.40;;;;;;6211861;23;20000;-78
2023/09/20 10:57:09;;;;;;;2.30;1.10;;;20.70;79.00;;;;;;6167701;23;20008;-80
2023/09/20 10:59:36;;;;;;;1.95;0.90;;;20.80;78.80;;;;;;6138922;23;20001;-74
2023/09/20 11:02:08;;;;;;;1.02;0.90;;;20.80;78.70;;;;;;6165377;23;20025;-76
2023/09/20 11:04:36;;;;;;;1.63;1.10;;;20.80;78.80;;;;;;6163346;23;20009;-76
2023/09/20 11:07:04;;;;;;;4.65;1.00;;;20.80;78.90;;;;;;6162730;23;20051;-74
2023/09/20 11:09:33;;;;;;;3.28;1.42;;;20.90;78.90;;;;;;6212154;23;20008;-76
2023/09/20 11:12:04;;;;;;;2.45;1.00;;;20.80;78.70;;;;;;6186762;23;20088;-77
2023/09/20 11:14:34;;;;;;;1.60;1.10;;;21.10;78.80;;;;;;6178668;23;20001;-77
2023/09/20 11:17:02;;;;;;;1.92;1.30;;;21.00;78.60;;;;;;6164680;23;20396;-76
2023/09/20 11:19:40;;;;;;;1.05;0.95;;;21.10;78.30;;;;;;6215428;23;20004;-79
2023/09/20 11:22:31;;;;;;;0.82;0.80;;;21.20;78.20;;;;;;6063127;23;20026;-79
2023/09/20 11:24:58;;;;;;;1.42;1.00;;;21.30;78.00;;;;;;6064820;23;20082;-75
2023/09/20 11:27:24;;;;;;;1.13;0.80;;;21.40;78.00;;;;;;6064656;23;20003;-74
2023/09/20 11:29:50;;;;;;;2.22;1.20;;;21.50;77.90;;;;;;6064649;23;20007;-75
2023/09/20 11:32:21;;;;;;;1.77;1.23;;;21.40;78.00;;;;;;6064019;23;20038;-74
2023/09/20 11:34:49;;;;;;;1.60;1.05;;;21.50;77.70;;;;;;6039589;23;20014;-76
2023/09/20 11:37:17;;;;;;;1.95;1.00;;;21.50;77.60;;;;;;6062049;23;20010;-75
2023/09/20 11:39:44;;;;;;;1.45;1.00;;;21.50;77.60;;;;;;6037354;23;20499;-75
2023/09/20 11:42:21;;;;;;;1.77;1.00;;;21.50;77.90;;;;;;6063898;23;20519;-75
2023/09/20 11:44:55;;;;;;;1.35;1.13;;;21.50;77.70;;;;;;6062906;23;20493;-76
2023/09/20 11:47:21;;;;;;;1.92;1.20;;;21.40;77.80;;;;;;6111008;23;20033;-75
2023/09/20 11:49:47;;;;;;;1.65;1.00;;;21.40;77.90;;;;;;6098215;23;20454;-75
2023/09/20 11:52:17;;;;;;;1.27;0.90;;;21.50;77.80;;;;;;6131960;23;20009;-76
2023/09/20 11:54:43;;;;;;;1.10;0.80;;;21.50;77.70;;;;;;6134944;23;20033;-76
2023/09/20 11:57:16;;;;;;;0.65;0.65;;;21.50;77.70;;;;;;6162637;23;20020;-76
2023/09/20 11:59:43;;;;;;;1.42;0.68;;;21.60;77.70;;;;;;6213985;23;20016;-75
2023/09/20 12:02:09;;;;;;;0.95;0.82;;;21.60;77.70;;;;;;6214253;23;20009;-75
2023/09/20 12:04:36;;;;;;;1.50;0.82;;;21.60;77.60;;;;;;6210672;23;20004;-76
2023/09/20 12:07:01;;;;;;;1.05;0.82;;;21.70;77.50;;;;;;6214029;23;19996;-76
2023/09/20 12:09:27;;;;;;;1.05;0.88;;;21.70;77.40;;;;;;6221268;23;20131;-76
2023/09/20 12:12:34;;;;;;;1.60;0.80;;;21.70;77.40;;;;;;6166501;23;20005;-78
2023/09/20 12:22:20;;;;;;;1.05;0.70;;;21.90;77.00;;;;;;6020468;23;20030;-77
2023/09/20 13:19:26;;;;;;;1.43;1.10;;;22.00;75.60;;;;;;6090221;23;20223;-80
2023/09/20 13:22:47;;;;;;;1.17;0.95;;;21.90;75.60;;;;;;6067085;23;20275;-78
2023/09/20 14:00:38;;;;;;;;;;;22.10;75.10;;;;;;5924852;24;20065;-78
2023/09/20 15:23:25;;;;;;;1.00;0.80;;;21.20;76.00;;;;;;6064877;23;20030;-75
2023/09/20 15:26:04;;;;;;;0.80;0.60;;;21.20;76.00;;;;;;5992454;23;20027;-76
2023/09/20 15:28:40;;;;;;;0.70;0.68;;;21.20;76.10;;;;;;5994505;23;20020;-75
2023/09/20 15:31:06;;;;;;;1.42;0.70;;;21.20;76.20;;;;;;5984808;23;20009;-76
2023/09/20 15:33:33;;;;;;;0.60;0.60;;;21.10;76.10;;;;;;5995508;23;20008;-76
2023/09/20 15:36:01;;;;;;;1.20;0.60;;;21.10;76.10;;;;;;5991746;23;20080;-75
2023/09/20 15:38:32;;;;;;;0.63;0.60;;;21.10;76.20;;;;;;5990519;23;20013;-76
2023/09/20 15:40:59;;;;;;;0.50;0.50;;;21.10;76.20;;;;;;5988316;23;20020;-75
2023/09/20 15:43:26;;;;;;;1.17;0.70;;;21.10;76.20;;;;;;5995146;23;20008;-76
2023/09/20 15:45:56;;;;;;;0.57;0.57;;;21.10;76.20;;;;;;5991963;23;20016;-75
2023/09/20 15:48:21;;;;;;;0.60;0.60;;;21.00;76.10;;;;;;5993319;23;20008;-75
2023/09/20 15:50:48;;;;;;;1.35;0.70;;;21.00;76.10;;;;;;6031243;23;20015;-75
2023/09/20 15:53:14;;;;;;;0.73;0.60;;;21.00;76.20;;;;;;6076522;23;20483;-75
2023/09/20 15:55:41;;;;;;;0.85;0.60;;;21.00;76.10;;;;;;6063175;23;20014;-74
2023/09/20 15:58:07;;;;;;;0.65;0.50;;;21.00;76.10;;;;;;6170660;23;20005;-74
2023/09/20 16:00:39;;;;;;;0.50;0.50;;;21.00;76.10;;;;;;6188578;23;20321;-76
2023/09/20 16:03:15;;;;;;;0.50;0.40;;;21.00;76.10;;;;;;6194138;23;20442;-77
2023/09/20 16:08:58;;;;;;;0.50;0.50;;;21.00;76.20;;;;;;6110717;23;20018;-76
2023/09/20 16:11:24;;;;;;;0.93;0.60;;;21.00;76.90;;;;;;6161348;23;20037;-76
2023/09/20 16:13:50;;;;;;;0.80;0.60;;;21.00;76.20;;;;;;6197508;23;20481;-76
2023/09/20 16:16:18;;;;;;;0.88;0.65;;;21.00;76.20;;;;;;6188138;23;20357;-77
2023/09/20 16:18:45;;;;;;;0.80;0.50;;;21.00;76.20;;;;;;6134288;23;20377;-76
2023/09/20 16:21:12;;;;;;;0.43;0.40;;;20.90;76.00;;;;;;6195210;23;20017;-74
2023/09/20 16:23:38;;;;;;;0.75;0.50;;;21.00;76.10;;;;;;6190018;23;20005;-75
2023/09/20 16:26:03;;;;;;;1.20;0.60;;;21.00;76.10;;;;;;6162376;23;20552;-75
2023/09/20 16:28:29;;;;;;;1.70;0.60;;;20.90;76.00;;;;;;6189737;23;20017;-75
2023/09/20 16:30:55;;;;;;;0.47;0.40;;;20.90;76.10;;;;;;6164658;23;20083;-74
2023/09/20 16:33:21;;;;;;;0.65;0.50;;;20.90;76.10;;;;;;6186540;23;20393;-75
2023/09/20 16:35:47;;;;;;;0.50;0.50;;;21.00;76.20;;;;;;6162120;23;20013;-74
2023/09/20 16:38:15;;;;;;;0.45;0.43;;;20.90;76.10;;;;;;6187425;23;20008;-74
2023/09/20 16:40:41;;;;;;;0.60;0.60;;;20.90;76.00;;;;;;6189834;23;20207;-74
2023/09/20 16:43:07;;;;;;;0.50;0.50;;;21.00;76.20;;;;;;6193112;23;20009;-74
2023/09/20 16:45:33;;;;;;;0.68;0.60;;;20.90;76.10;;;;;;6163937;23;20577;-74
2023/09/20 16:47:59;;;;;;;0.73;0.57;;;20.90;76.10;;;;;;6190097;23;20009;-74
2023/09/20 16:50:25;;;;;;;0.85;0.77;;;20.90;76.10;;;;;;6165360;23;20005;-75
2023/09/20 16:52:50;;;;;;;1.10;0.75;;;20.90;76.10;;;;;;6187558;23;20048;-74
2023/09/20 16:55:17;;;;;;;0.70;0.63;;;20.80;76.00;;;;;;6189613;23;20413;-74
2023/09/20 16:57:43;;;;;;;1.35;0.60;;;20.80;76.00;;;;;;6188357;23;20059;-74
2023/09/20 17:00:14;;;;;;;1.08;0.68;;;20.80;76.20;;;;;;6186420;23;20107;-75
2023/09/20 17:02:41;;;;;;;1.83;0.68;;;20.80;76.20;;;;;;6191793;23;20009;-74
2023/09/20 17:05:08;;;;;;;0.73;0.50;;;20.70;76.10;;;;;;6184816;23;20838;-74